Terminal Aerodrome Forecast
Issued by NWS Topeka, KS

Home | Current Version | Previous Version | Graphics & Text | Print | Product List | Glossary On
Versions: 1 2 3 4 5 6 7 8 9 10 11 12 13 14 15 16 17 18
631
FTUS43 KTOP 080049 AAA
TAFTOP
TAF AMD
KTOP 080049Z 0801/0824 31015G23KT P6SM BKN060
      TEMPO 0801/0803 32025G35KT
     FM080600 32018G26KT P6SM SCT020 BKN035
     FM081500 32022G33KT P6SM SCT025 BKN050
     FM081800 32026G37KT P6SM SCT050=

USA.gov is the U.S. government's official web portal to all federal, state and local government web resources and services.